Time;durP1;ratioP1;P1;durP2;ratioP2;P2;SDS_P1;SDS_P2;PMS_P1;PMS_P2;Temp;Humidity;BMP_temperature;BMP_pressure;BME280_temperature;BME280_humidity;BME280_pressure;Samples;Min_cycle;Max_cycle;Signal;HPM_P1;HPM_P2
2022/05/16 00:01:21;;;;;;;;;;;;;;;22.45;74.83;97301.18;611887;232;64849;-75
2022/05/16 00:03:48;;;;;;;;;;;;;;;22.45;74.55;97308.42;610884;230;65327;-75
2022/05/16 00:06:16;;;;;;;;;;;;;;;22.45;74.67;97297.70;610647;232;67015;-75
2022/05/16 00:08:43;;;;;;;;;;;;;;;22.46;74.90;97299.33;611531;232;66870;-75
2022/05/16 00:11:11;;;;;;;;;;;;;;;22.46;74.96;97296.65;611810;232;65448;-75
2022/05/16 00:13:38;;;;;;;;;;;;;;;22.45;75.18;97300.38;611857;232;67999;-75
2022/05/16 00:16:06;;;;;;;;;;;;;;;22.45;75.12;97305.73;611806;232;66976;-75
2022/05/16 00:18:33;;;;;;;;;;;;;;;22.45;75.02;97297.70;611842;232;65374;-75
2022/05/16 00:21:01;;;;;;;;;;;;;;;22.46;74.99;97304.69;611788;232;67054;-75
2022/05/16 00:23:28;;;;;;;;;;;;;;;22.45;75.32;97300.38;611822;232;66943;-75
2022/05/16 00:25:56;;;;;;;;;;;;;;;22.44;75.53;97294.23;611841;232;63002;-69
2022/05/16 00:28:23;;;;;;;;;;;;;;;22.45;75.39;97303.06;611799;232;64882;-69
2022/05/16 00:30:51;;;;;;;;;;;;;;;22.44;75.52;97304.15;611821;232;66716;-70
2022/05/16 00:33:18;;;;;;;;;;;;;;;22.44;75.37;97296.11;611818;232;65407;-69
2022/05/16 00:35:46;;;;;;;;;;;;;;;22.44;75.39;97294.23;611778;232;67101;-69
2022/05/16 00:38:13;;;;;;;;;;;;;;;22.44;75.38;97298.79;611856;232;66589;-70
2022/05/16 00:40:41;;;;;;;;;;;;;;;22.43;75.02;97298.00;611806;232;62586;-69
2022/05/16 00:43:11;;;;;;;;;;;;;;;22.44;75.37;97293.44;611780;232;67561;-70
2022/05/16 00:45:38;;;;;;;;;;;;;;;22.44;75.56;97291.55;611806;232;67222;-70
2022/05/16 00:48:06;;;;;;;;;;;;;;;22.44;75.04;97293.44;611809;232;65443;-70
2022/05/16 00:50:39;;;;;;;;;;;;;;;22.44;75.14;97293.44;611804;232;67123;-69
2022/05/16 00:53:04;;;;;;;;;;;;;;;22.44;75.04;97290.76;611769;230;64872;-69
2022/05/16 00:55:33;;;;;;;;;;;;;;;22.44;75.38;97296.11;611821;232;62909;-69
2022/05/16 00:58:02;;;;;;;;;;;;;;;22.42;75.28;97284.86;611794;232;64878;-70
2022/05/16 01:00:34;;;;;;;;;;;;;;;22.43;75.01;97297.20;611828;232;64846;-69
2022/05/16 01:05:48;;;;;;;;;;;;;;;22.42;74.62;97296.38;611831;232;66876;-71
2022/05/16 01:08:17;;;;;;;;;;;;;;;22.42;74.77;97299.05;611856;232;64719;-70
2022/05/16 01:10:45;;;;;;;;;;;;;;;22.42;74.83;97295.58;611772;232;62977;-70
2022/05/16 01:13:13;;;;;;;;;;;;;;;22.42;74.84;97292.90;611804;232;65071;-70
2022/05/16 01:15:44;;;;;;;;;;;;;;;22.42;74.80;97300.94;611811;232;64744;-71
2022/05/16 01:18:13;;;;;;;;;;;;;;;22.42;75.05;97292.90;611829;232;63142;-70
2022/05/16 01:20:42;;;;;;;;;;;;;;;22.41;75.07;97291.31;611887;232;64644;-71
2022/05/16 01:23:11;;;;;;;;;;;;;;;22.41;74.55;97296.66;611802;232;64854;-71
2022/05/16 01:25:39;;;;;;;;;;;;;;;22.41;75.09;97294.78;611848;232;65106;-71
2022/05/16 01:28:06;;;;;;;;;;;;;;;22.42;74.73;97290.22;611837;232;67376;-71
2022/05/16 01:30:35;;;;;;;;;;;;;;;22.41;74.72;97278.71;611810;232;67010;-71
2022/05/16 01:33:03;;;;;;;;;;;;;;;22.41;74.91;97288.63;611869;232;65385;-70
2022/05/16 01:35:31;;;;;;;;;;;;;;;22.41;75.03;97286.75;611805;232;67118;-71
2022/05/16 01:40:45;;;;;;;;;;;;;;;22.41;75.19;97285.95;611820;232;65433;-69
2022/05/16 01:43:13;;;;;;;;;;;;;;;22.40;75.18;97282.48;611825;232;64940;-69
2022/05/16 01:45:44;;;;;;;;;;;;;;;22.39;75.10;97278.97;611857;232;64827;-70
2022/05/16 01:48:12;;;;;;;;;;;;;;;22.39;75.08;97284.33;611886;232;65403;-71
2022/05/16 01:50:40;;;;;;;;;;;;;;;22.38;74.91;97288.09;611851;232;64848;-71
2022/05/16 01:53:08;;;;;;;;;;;;;;;22.41;75.47;97288.63;611868;232;66752;-71
2022/05/16 01:55:36;;;;;;;;;;;;;;;22.39;75.12;97292.36;611802;229;65382;-70
2022/05/16 01:58:06;;;;;;;;;;;;;;;22.39;75.47;97284.33;611852;232;64215;-70
2022/05/16 02:00:35;;;;;;;;;;;;;;;22.39;75.31;97291.56;611876;232;64952;-70
2022/05/16 02:03:05;;;;;;;;;;;;;;;22.39;75.54;97281.66;611810;231;62854;-70
2022/05/16 02:05:33;;;;;;;;;;;;;;;22.39;75.24;97288.89;611830;232;65103;-70
2022/05/16 02:08:01;;;;;;;;;;;;;;;22.39;75.01;97283.53;611793;232;64719;-71
2022/05/16 02:10:29;;;;;;;;;;;;;;;22.38;75.02;97285.42;611847;232;63060;-76
2022/05/16 02:12:57;;;;;;;;;;;;;;;22.38;75.04;97285.42;611832;232;67093;-76
2022/05/16 02:15:26;;;;;;;;;;;;;;;22.38;75.16;97277.38;611891;232;66906;-76
2022/05/16 02:17:54;;;;;;;;;;;;;;;22.38;75.37;97285.42;611856;232;62993;-76
2022/05/16 02:20:22;;;;;;;;;;;;;;;22.37;75.37;97273.11;611852;232;64562;-76
2022/05/16 02:25:39;;;;;;;;;;;;;;;22.38;75.46;97280.06;611804;232;65510;-75
2022/05/16 02:28:09;;;;;;;;;;;;;;;22.38;75.60;97284.62;611883;232;65170;-76
2022/05/16 02:30:38;;;;;;;;;;;;;;;22.38;75.72;97284.62;611851;232;66140;-76
2022/05/16 02:33:06;;;;;;;;;;;;;;;22.37;75.77;97281.15;611825;232;63383;-76
2022/05/16 02:35:33;;;;;;;;;;;;;;;22.38;75.73;97284.62;611827;232;67076;-76
2022/05/16 02:38:01;;;;;;;;;;;;;;;22.36;75.55;97287.56;611835;232;66889;-71
2022/05/16 02:40:29;;;;;;;;;;;;;;;22.38;75.87;97292.66;611846;232;65130;-71
2022/05/16 02:42:57;;;;;;;;;;;;;;;22.36;75.79;97287.56;611940;232;66884;-71
2022/05/16 02:45:26;;;;;;;;;;;;;;;22.37;75.70;97293.70;611804;229;66788;-70
2022/05/16 02:47:53;;;;;;;;;;;;;;;22.36;75.72;97298.27;611841;232;63192;-70
2022/05/16 02:50:23;;;;;;;;;;;;;;;22.36;75.84;97292.91;611832;232;64579;-70
2022/05/16 02:52:51;;;;;;;;;;;;;;;22.36;75.64;97292.91;611855;232;66652;-71
2022/05/16 02:55:19;;;;;;;;;;;;;;;22.36;75.40;97295.59;611877;232;62989;-71
2022/05/16 02:57:46;;;;;;;;;;;;;;;22.36;75.25;97298.27;611850;232;64602;-70
2022/05/16 03:00:16;;;;;;;;;;;;;;;22.37;75.35;97293.70;611861;232;65417;-71
2022/05/16 03:02:44;;;;;;;;;;;;;;;22.37;75.24;97304.42;612002;229;63221;-71
2022/05/16 03:05:12;;;;;;;;;;;;;;;22.36;75.46;97306.30;611326;232;64382;-70
2022/05/16 03:07:39;;;;;;;;;;;;;;;22.36;75.44;97306.30;611917;232;64380;-70
2022/05/16 03:10:08;;;;;;;;;;;;;;;22.37;75.48;97309.77;611795;232;64996;-70
2022/05/16 03:12:35;;;;;;;;;;;;;;;22.35;75.20;97296.67;611794;232;64830;-71
2022/05/16 03:15:03;;;;;;;;;;;;;;;22.35;75.55;97294.00;611821;232;67325;-71
2022/05/16 03:17:31;;;;;;;;;;;;;;;22.36;75.79;97297.47;611805;232;62996;-76
2022/05/16 03:20:00;;;;;;;;;;;;;;;22.35;75.53;97307.39;611846;232;64857;-76
2022/05/16 03:22:28;;;;;;;;;;;;;;;22.35;75.58;97306.59;611858;232;65029;-70
2022/05/16 03:24:56;;;;;;;;;;;;;;;22.34;75.25;97305.80;611786;232;62949;-71
2022/05/16 03:27:25;;;;;;;;;;;;;;;22.35;75.44;97312.73;611830;232;68146;-71
2022/05/16 03:29:53;;;;;;;;;;;;;;;22.35;75.51;97314.62;611829;232;67086;-70
2022/05/16 03:32:20;;;;;;;;;;;;;;;22.35;75.67;97311.95;611839;232;65279;-70
2022/05/16 03:34:54;;;;;;;;;;;;;;;22.35;75.51;97310.06;611851;232;66741;-70
2022/05/16 03:37:22;;;;;;;;;;;;;;;22.35;75.38;97311.95;611800;232;67059;-70
2022/05/16 03:42:35;;;;;;;;;;;;;;;22.35;75.56;97312.73;611838;232;67558;-76
2022/05/16 03:45:04;;;;;;;;;;;;;;;22.33;75.52;97317.56;611845;232;66917;-76
2022/05/16 03:47:32;;;;;;;;;;;;;;;22.34;75.58;97313.83;611801;232;63293;-76
2022/05/16 03:49:59;;;;;;;;;;;;;;;22.34;75.37;97316.50;611826;232;65653;-76
2022/05/16 03:52:27;;;;;;;;;;;;;;;22.33;75.30;97320.23;611856;232;66898;-76
2022/05/16 03:54:54;;;;;;;;;;;;;;;22.33;75.42;97322.91;611814;232;66411;-76
2022/05/16 03:57:22;;;;;;;;;;;;;;;22.34;75.61;97321.03;611830;232;67190;-74
2022/05/16 03:59:49;;;;;;;;;;;;;;;22.33;75.58;97319.44;611835;232;64984;-74
2022/05/16 04:02:17;;;;;;;;;;;;;;;22.33;75.50;97322.12;612093;230;63031;-73
2022/05/16 04:04:44;;;;;;;;;;;;;;;22.33;75.39;97319.44;611030;232;67275;-74
2022/05/16 04:07:12;;;;;;;;;;;;;;;22.33;75.65;97320.23;611805;232;66974;-74
2022/05/16 04:09:39;;;;;;;;;;;;;;;22.33;75.35;97317.56;611847;232;65081;-74
2022/05/16 04:12:07;;;;;;;;;;;;;;;22.32;75.60;97318.64;611824;232;67062;-74
2022/05/16 04:14:35;;;;;;;;;;;;;;;22.32;75.59;97315.97;611849;232;66882;-74
2022/05/16 04:17:02;;;;;;;;;;;;;;;22.32;75.67;97321.32;611796;232;65013;-74
2022/05/16 04:19:30;;;;;;;;;;;;;;;22.33;75.72;97308.73;611823;232;67049;-74
2022/05/16 04:21:57;;;;;;;;;;;;;;;22.31;75.73;97317.02;611838;232;64877;-74
2022/05/16 04:24:25;;;;;;;;;;;;;;;22.33;75.88;97314.09;611798;232;63013;-74
2022/05/16 04:26:52;;;;;;;;;;;;;;;22.32;75.69;97315.17;611802;232;64777;-74
2022/05/16 04:29:20;;;;;;;;;;;;;;;22.31;75.59;97317.02;611830;232;65092;-68
2022/05/16 04:31:50;;;;;;;;;;;;;;;22.32;75.70;97315.17;611770;232;65533;-68
2022/05/16 04:34:16;;;;;;;;;;;;;;;22.32;75.87;97315.17;611743;231;67116;-69
2022/05/16 04:36:44;;;;;;;;;;;;;;;22.31;75.87;97316.23;611823;232;66891;-69
2022/05/16 04:39:11;;;;;;;;;;;;;;;22.31;75.79;97322.38;611818;232;65312;-69
2022/05/16 04:44:24;;;;;;;;;;;;;;;22.31;75.81;97316.23;611818;232;64725;-69
2022/05/16 04:46:52;;;;;;;;;;;;;;;22.31;75.81;97318.91;611824;232;65098;-69
2022/05/16 04:49:19;;;;;;;;;;;;;;;22.30;75.67;97323.46;611821;232;64215;-69
2022/05/16 04:51:47;;;;;;;;;;;;;;;22.29;75.99;97321.87;611822;232;64822;-69
2022/05/16 04:54:14;;;;;;;;;;;;;;;22.31;75.85;97324.26;611826;232;62950;-69
2022/05/16 04:56:42;;;;;;;;;;;;;;;22.30;75.91;97326.14;611813;232;65139;-69
2022/05/16 04:59:10;;;;;;;;;;;;;;;22.30;75.84;97325.34;611815;232;64940;-69
2022/05/16 05:01:38;;;;;;;;;;;;;;;22.30;75.87;97326.14;611846;232;65116;-69
2022/05/16 05:04:05;;;;;;;;;;;;;;;22.29;75.85;97319.19;611808;230;67079;-69
2022/05/16 05:06:33;;;;;;;;;;;;;;;22.29;75.93;97319.19;611814;232;66877;-69
2022/05/16 05:09:00;;;;;;;;;;;;;;;22.29;75.84;97319.19;611778;232;65478;-69
2022/05/16 05:14:32;;;;;;;;;;;;;;;22.30;76.00;97323.46;611811;232;64634;-69
2022/05/16 05:17:01;;;;;;;;;;;;;;;22.29;76.02;97321.87;611798;232;62844;-71
2022/05/16 05:19:29;;;;;;;;;;;;;;;22.29;75.80;97329.08;611065;232;64847;-71
2022/05/16 05:21:57;;;;;;;;;;;;;;;22.28;75.68;97324.80;611819;232;64767;-70
2022/05/16 05:24:25;;;;;;;;;;;;;;;22.28;75.98;97325.60;611835;232;66241;-70
2022/05/16 05:26:52;;;;;;;;;;;;;;;22.28;75.98;97324.80;611644;232;67303;-71
2022/05/16 05:29:20;;;;;;;;;;;;;;;22.28;76.22;97322.12;611764;232;66898;-71
2022/05/16 05:31:48;;;;;;;;;;;;;;;22.29;76.21;97331.75;611670;232;62977;-70
2022/05/16 05:34:15;;;;;;;;;;;;;;;22.28;76.07;97325.60;611753;232;64831;-70
2022/05/16 05:36:43;;;;;;;;;;;;;;;22.28;75.96;97327.48;611855;232;64658;-71
2022/05/16 05:39:16;;;;;;;;;;;;;;;22.27;75.93;97326.69;611794;232;63059;-70
2022/05/16 05:41:44;;;;;;;;;;;;;;;22.27;76.03;97321.33;611784;232;67016;-70
2022/05/16 05:44:12;;;;;;;;;;;;;;;22.28;76.36;97325.60;611782;232;67189;-70
2022/05/16 05:46:41;;;;;;;;;;;;;;;22.27;76.25;97328.56;611763;232;63041;-71
2022/05/16 05:49:12;;;;;;;;;;;;;;;22.28;76.43;97324.80;611739;232;66800;-71
2022/05/16 05:51:40;;;;;;;;;;;;;;;22.28;76.36;97328.28;611769;232;67084;-70
2022/05/16 05:54:08;;;;;;;;;;;;;;;22.28;76.43;97330.16;606060;232;68936;-71
2022/05/16 05:56:37;;;;;;;;;;;;;;;22.27;76.38;97321.33;611339;232;68082;-71
2022/05/16 05:59:05;;;;;;;;;;;;;;;22.26;76.18;97325.09;611687;232;66912;-70
2022/05/16 06:01:32;;;;;;;;;;;;;;;22.27;76.32;97340.07;611602;230;65333;-70
2022/05/16 06:04:00;;;;;;;;;;;;;;;22.26;76.27;97341.16;609312;231;66742;-70
2022/05/16 06:06:28;;;;;;;;;;;;;;;22.27;76.32;97340.07;610138;232;66901;-70
2022/05/16 06:08:56;;;;;;;;;;;;;;;22.25;76.22;97336.86;610869;232;65731;-70
2022/05/16 06:11:28;;;;;;;;;;;;;;;22.25;75.77;97338.73;610962;232;67326;-71
2022/05/16 06:13:53;;;;;;;;;;;;;;;22.26;75.78;97341.16;610822;232;66951;-70
2022/05/16 06:16:20;;;;;;;;;;;;;;;22.27;75.82;97340.07;610858;232;65390;-70
2022/05/16 06:18:48;;;;;;;;;;;;;;;22.28;75.78;97343.55;610928;232;67052;-71
2022/05/16 06:21:15;;;;;;;;;;;;;;;22.28;75.29;97343.55;611028;232;67000;-70
2022/05/16 06:23:44;;;;;;;;;;;;;;;22.28;74.57;97340.87;610906;232;65399;-72
2022/05/16 06:26:13;;;;;;;;;;;;;;;22.29;73.52;97343.28;610034;232;47199;-74
2022/05/16 06:28:41;;;;;;;;;;;;;;;22.31;73.60;97348.36;611003;232;66981;-70
2022/05/16 06:31:08;;;;;;;;;;;;;;;22.32;73.49;97353.45;610980;232;65083;-70
2022/05/16 06:33:36;;;;;;;;;;;;;;;22.34;72.02;97347.80;610984;232;64907;-70
2022/05/16 06:36:05;;;;;;;;;;;;;;;22.34;73.18;97342.45;611002;232;65658;-72
2022/05/16 06:38:34;;;;;;;;;;;;;;;22.33;73.29;97347.02;610892;232;65793;-70
2022/05/16 06:41:01;;;;;;;;;;;;;;;22.33;73.08;97336.30;610987;232;64845;-72
2022/05/16 06:43:29;;;;;;;;;;;;;;;22.33;73.40;97341.66;610920;232;64747;-69
2022/05/16 06:45:57;;;;;;;;;;;;;;;22.33;69.42;97340.86;610961;232;65145;-75
2022/05/16 06:48:24;;;;;;;;;;;;;;;22.36;71.76;97342.99;611012;232;67073;-70
2022/05/16 06:50:52;;;;;;;;;;;;;;;22.34;69.13;97335.25;611056;232;66380;-70
2022/05/16 06:53:24;;;;;;;;;;;;;;;22.37;69.98;97339.23;610902;232;65209;-70
2022/05/16 06:55:51;;;;;;;;;;;;;;;22.41;70.11;97337.62;611011;232;67373;-70
2022/05/16 06:58:19;;;;;;;;;;;;;;;22.41;70.94;97337.62;611009;232;66899;-70
2022/05/16 07:00:47;;;;;;;;;;;;;;;22.40;70.44;97344.06;611033;232;63037;-70
2022/05/16 07:03:14;;;;;;;;;;;;;;;22.42;70.61;97338.42;610657;232;66895;-69
2022/05/16 07:05:42;;;;;;;;;;;;;;;22.41;71.27;97334.16;610793;230;67009;-70
2022/05/16 07:08:11;;;;;;;;;;;;;;;22.41;71.82;97334.16;611062;232;64075;-70
2022/05/16 07:10:39;;;;;;;;;;;;;;;22.40;72.20;97336.03;611087;232;66717;-71
2022/05/16 07:13:08;;;;;;;;;;;;;;;22.40;71.43;97336.03;610991;232;66929;-70
2022/05/16 07:15:35;;;;;;;;;;;;;;;22.41;72.44;97337.62;610998;232;63755;-74
2022/05/16 07:18:03;;;;;;;;;;;;;;;22.42;72.33;97338.42;610987;232;66775;-70
2022/05/16 07:20:31;;;;;;;;;;;;;;;22.57;69.22;97349.10;610920;232;66698;-70
2022/05/16 07:22:59;;;;;;;;;;;;;;;22.62;67.86;97338.38;610976;232;65919;-70
2022/05/16 07:25:27;;;;;;;;;;;;;;;22.56;69.84;97336.77;610715;232;65107;-75
2022/05/16 07:28:03;;;;;;;;;;;;;;;22.52;70.41;97335.72;610479;232;64520;-70
2022/05/16 07:30:29;;;;;;;;;;;;;;;22.50;70.58;97333.30;610870;232;63083;-70
2022/05/16 07:32:57;;;;;;;;;;;;;;;22.49;70.69;97334.39;610983;232;67134;-70
2022/05/16 07:35:26;;;;;;;;;;;;;;;22.49;70.85;97330.91;610978;232;66888;-70
2022/05/16 07:37:54;;;;;;;;;;;;;;;22.48;71.69;97327.44;610938;232;65087;-71
2022/05/16 07:40:23;;;;;;;;;;;;;;;22.50;69.69;97327.16;611025;232;67370;-70
2022/05/16 07:42:51;;;;;;;;;;;;;;;22.53;69.80;97323.92;610935;230;64889;-70
2022/05/16 07:45:19;;;;;;;;;;;;;;;22.53;69.03;97323.92;610963;232;62938;-69
2022/05/16 07:47:47;;;;;;;;;;;;;;;22.53;67.66;97319.36;611043;232;67100;-69
2022/05/16 07:50:15;;;;;;;;;;;;;;;22.53;70.48;97314.00;610907;232;67068;-69
2022/05/16 07:52:48;;;;;;;;;;;;;;;22.53;71.36;97315.89;610391;232;42117;-69
2022/05/16 07:55:17;;;;;;;;;;;;;;;22.53;70.90;97318.56;610828;232;67167;-69
2022/05/16 07:57:44;;;;;;;;;;;;;;;22.53;71.34;97321.25;610953;232;66872;-69
2022/05/16 08:00:12;;;;;;;;;;;;;;;22.52;70.98;97317.77;610987;232;65117;-69
2022/05/16 08:02:40;;;;;;;;;;;;;;;22.54;71.31;97322.87;610289;232;67117;-69
2022/05/16 08:05:08;;;;;;;;;;;;;;;22.54;71.46;97315.63;610288;232;66815;-69
2022/05/16 08:10:28;;;;;;;;;;;;;;;22.55;71.32;97313.75;609358;232;65358;-69
2022/05/16 08:12:50;;;;;;;;;;;;;;;22.55;71.87;97321.78;609716;232;67303;-69
2022/05/16 08:15:18;;;;;;;;;;;;;;;22.56;72.00;97326.05;609734;232;65094;-71
2022/05/16 08:17:45;;;;;;;;;;;;;;;22.56;70.99;97323.38;609447;232;67865;-71
2022/05/16 08:20:13;;;;;;;;;;;;;;;22.57;69.47;97335.70;609595;232;66958;-74
2022/05/16 08:22:40;;;;;;;;;;;;;;;22.58;70.54;97326.59;609687;232;65175;-74
2022/05/16 08:25:08;;;;;;;;;;;;;;;22.58;70.36;97330.06;609593;232;67097;-77
2022/05/16 08:27:36;;;;;;;;;;;;;;;22.59;68.27;97328.20;609725;232;66686;-76
2022/05/16 08:30:03;;;;;;;;;;;;;;;22.61;70.58;97328.72;609718;232;65319;-76
2022/05/16 08:32:31;;;;;;;;;;;;;;;22.61;69.82;97321.48;609668;232;66752;-76
2022/05/16 08:34:59;;;;;;;;;;;;;;;22.62;70.38;97322.30;609701;232;66878;-76
2022/05/16 08:40:14;;;;;;;;;;;;;;;22.63;68.74;97321.22;609727;232;67472;-69
2022/05/16 08:42:50;;;;;;;;;;;;;;;22.67;68.54;97321.46;609722;232;67472;-77
2022/05/16 08:45:19;;;;;;;;;;;;;;;22.65;67.61;97311.03;609674;232;65610;-76
2022/05/16 08:47:51;;;;;;;;;;;;;;;22.67;70.00;97324.96;609615;232;67081;-75
2022/05/16 08:50:21;;;;;;;;;;;;;;;22.67;71.07;97319.61;609703;232;67407;-78
2022/05/16 08:52:52;;;;;;;;;;;;;;;22.66;71.33;97323.34;609643;232;63076;-77
2022/05/16 08:55:37;;;;;;;;;;;;;;;22.66;70.32;97317.98;609688;232;64838;-77
2022/05/16 08:58:09;;;;;;;;;;;;;;;22.66;70.47;97320.66;609740;232;66988;-76
2022/05/16 09:00:41;;;;;;;;;;;;;;;22.67;70.09;97318.78;609646;232;65392;-75
2022/05/16 09:03:09;;;;;;;;;;;;;;;22.67;70.74;97322.28;608811;232;67170;-74
2022/05/16 09:05:38;;;;;;;;;;;;;;;22.68;69.79;97320.41;609749;232;66843;-75
2022/05/16 09:08:07;;;;;;;;;;;;;;;22.67;70.04;97311.57;609718;232;63006;-74
2022/05/16 09:10:39;;;;;;;;;;;;;;;22.68;70.47;97313.16;609817;232;65678;-73
2022/05/16 09:13:11;;;;;;;;;;;;;;;22.67;69.01;97308.89;608163;232;67104;-74
2022/05/16 09:15:46;;;;;;;;;;;;;;;22.69;69.32;97304.03;609696;232;65131;-74
2022/05/16 09:18:16;;;;;;;;;;;;;;;22.70;69.29;97307.52;610320;232;67101;-75
2022/05/16 09:20:45;;;;;;;;;;;;;;;22.71;69.40;97309.13;611050;232;64727;-74
2022/05/16 09:23:15;;;;;;;;;;;;;;;22.71;69.51;97301.89;610830;232;62998;-74
2022/05/16 09:25:45;;;;;;;;;;;;;;;22.71;68.28;97298.42;610039;232;67325;-74
2022/05/16 09:30:59;;;;;;;;;;;;;;;22.72;69.11;97300.01;611018;232;65450;-70
2022/05/16 09:33:28;;;;;;;;;;;;;;;22.72;69.54;97300.80;610974;232;67052;-75
2022/05/16 09:36:06;;;;;;;;;;;;;;;22.73;69.22;97290.91;610929;232;65043;-79
2022/05/16 09:38:34;;;;;;;;;;;;;;;22.74;68.87;97284.47;611008;232;65467;-76
2022/05/16 09:41:03;;;;;;;;;;;;;;;22.74;68.61;97293.30;611050;232;67163;-76
2022/05/16 09:43:33;;;;;;;;;;;;;;;22.74;69.02;97289.83;610956;232;66924;-76
2022/05/16 09:46:04;;;;;;;;;;;;;;;22.74;69.48;97287.94;610681;232;65113;-77
2022/05/16 09:48:32;;;;;;;;;;;;;;;22.75;68.15;97286.88;608293;232;66736;-76
2022/05/16 09:51:00;;;;;;;;;;;;;;;22.75;67.96;97291.41;608883;232;66846;-76
2022/05/16 09:53:30;;;;;;;;;;;;;;;22.76;68.89;97277.76;609946;232;63874;-75
2022/05/16 09:55:59;;;;;;;;;;;;;;;22.76;67.49;97272.40;610017;230;65063;-76
2022/05/16 09:58:33;;;;;;;;;;;;;;;22.78;68.18;97272.94;609580;230;64899;-75
2022/05/16 10:01:01;;;;;;;;;;;;;;;22.78;69.10;97267.58;608736;233;65386;-73
2022/05/16 10:03:34;;;;;;;;;;;;;;;22.78;68.52;97270.25;609100;232;65079;-75
2022/05/16 10:06:03;;;;;;;;;;;;;;;22.78;68.58;97267.58;609105;233;67047;-81
2022/05/16 10:08:32;;;;;;;;;;;;;;;22.78;69.42;97262.22;609027;233;65132;-74
2022/05/16 10:11:00;;;;;;;;;;;;;;;22.75;66.54;97264.63;609041;233;67199;-73
2022/05/16 10:13:28;;;;;;;;;;;;;;;22.78;66.79;97256.86;608975;233;66912;-73
2022/05/16 10:15:56;;;;;;;;;;;;;;;22.78;67.20;97264.07;609102;233;65330;-72
2022/05/16 10:18:25;;;;;;;;;;;;;;;22.79;67.42;97255.77;609029;233;65085;-72
2022/05/16 10:21:02;;;;;;;;;;;;;;;22.79;66.98;97252.30;609081;232;48974;-72
2022/05/16 10:23:31;;;;;;;;;;;;;;;22.80;67.60;97249.32;609120;233;63186;-71
2022/05/16 10:26:00;;;;;;;;;;;;;;;22.79;67.50;97247.73;609045;233;64927;-72
2022/05/16 10:28:35;;;;;;;;;;;;;;;22.80;68.12;97243.16;609084;233;64803;-72
2022/05/16 10:33:50;;;;;;;;;;;;;;;22.80;67.85;97238.60;609055;233;65258;-72
2022/05/16 10:36:25;;;;;;;;;;;;;;;22.81;67.42;97234.86;609073;233;66715;-72
2022/05/16 10:39:09;;;;;;;;;;;;;;;22.81;67.35;97229.50;608875;233;65138;-71
2022/05/16 10:41:47;;;;;;;;;;;;;;;22.82;67.41;97227.62;609091;233;67136;-70
2022/05/16 10:44:32;;;;;;;;;;;;;;;22.82;67.52;97224.94;609054;233;67600;-76
2022/05/16 10:47:01;;;;;;;;;;;;;;;22.83;67.42;97229.21;609067;233;63187;-74
2022/05/16 10:49:30;;;;;;;;;;;;;;;22.84;67.36;97228.16;609046;233;67074;-75
2022/05/16 10:52:11;;;;;;;;;;;;;;;22.85;67.89;97221.70;609039;232;67020;-74
2022/05/16 10:54:38;;;;;;;;;;;;;;;22.85;67.58;97215.55;608793;232;65305;-74
2022/05/16 10:57:07;;;;;;;;;;;;;;;22.85;67.49;97224.38;609122;233;67023;-73
2022/05/16 10:59:40;;;;;;;;;;;;;;;22.85;67.35;97212.87;609084;233;64636;-73
2022/05/16 11:02:18;;;;;;;;;;;;;;;22.84;67.31;97212.08;609123;232;63074;-73
2022/05/16 11:05:01;;;;;;;;;;;;;;;22.86;67.60;97214.46;610925;232;66632;-74
2022/05/16 11:07:31;;;;;;;;;;;;;;;22.87;67.66;97205.36;610296;232;66602;-75
2022/05/16 11:10:03;;;;;;;;;;;;;;;22.88;67.70;97204.27;610899;232;64969;-76
2022/05/16 11:12:44;;;;;;;;;;;;;;;22.88;67.90;97198.91;610999;232;67077;-76
2022/05/16 11:15:16;;;;;;;;;;;;;;;22.88;67.71;97201.59;610666;232;66625;-76
2022/05/16 11:17:54;;;;;;;;;;;;;;;22.88;67.40;97202.39;610792;232;65151;-73
2022/05/16 11:20:23;;;;;;;;;;;;;;;22.87;67.70;97203.47;610668;232;64606;-74
2022/05/16 11:22:52;;;;;;;;;;;;;;;22.89;67.60;97203.18;610741;232;64556;-72
2022/05/16 11:25:25;;;;;;;;;;;;;;;22.88;67.70;97196.23;609531;232;65122;-73
2022/05/16 11:27:57;;;;;;;;;;;;;;;22.88;67.97;97198.91;610877;232;67149;-76
2022/05/16 11:30:38;;;;;;;;;;;;;;;22.90;67.80;97192.20;610932;232;64807;-75
2022/05/16 11:33:19;;;;;;;;;;;;;;;22.90;68.66;97192.20;610812;232;65370;-72
2022/05/16 11:35:48;;;;;;;;;;;;;;;22.90;68.05;97189.52;610751;232;68205;-73
2022/05/16 11:38:17;;;;;;;;;;;;;;;22.90;67.51;97183.36;610877;232;66930;-76
2022/05/16 11:41:01;;;;;;;;;;;;;;;22.91;68.31;97190.31;610727;232;72282;-76
2022/05/16 11:43:30;;;;;;;;;;;;;;;22.91;68.09;97183.06;610608;232;64879;-74
2022/05/16 11:46:16;;;;;;;;;;;;;;;22.92;67.24;97186.57;610907;232;65018;-75
2022/05/16 11:48:49;;;;;;;;;;;;;;;22.92;68.30;97184.69;610806;232;65439;-77
2022/05/16 11:51:23;;;;;;;;;;;;;;;22.92;67.81;97182.00;610781;231;64866;-75
2022/05/16 11:53:57;;;;;;;;;;;;;;;22.92;68.06;97171.28;610996;232;64548;-75
2022/05/16 12:02:11;;;;;;;;;;;;;;;22.93;67.08;97162.16;608584;232;65177;-70
2022/05/16 12:04:47;;;;;;;;;;;;;;;22.93;68.01;97164.04;610635;231;63888;-70
2022/05/16 12:07:16;;;;;;;;;;;;;;;22.93;67.61;97164.04;610988;232;67194;-70
2022/05/16 12:09:58;;;;;;;;;;;;;;;22.93;67.89;97159.48;610940;232;64794;-71
2022/05/16 12:12:30;;;;;;;;;;;;;;;22.94;67.68;97163.74;610038;232;65210;-70
2022/05/16 12:15:03;;;;;;;;;;;;;;;22.94;67.34;97166.42;610161;232;67020;-70
2022/05/16 12:17:31;;;;;;;;;;;;;;;22.94;67.83;97162.95;610238;231;67644;-71
2022/05/16 12:19:58;;;;;;;;;;;;;;;22.94;67.80;97157.59;610886;232;64958;-71
2022/05/16 12:22:43;;;;;;;;;;;;;;;22.95;68.07;97153.84;610800;232;66835;-72
2022/05/16 12:25:30;;;;;;;;;;;;;;;22.94;67.22;97147.66;610757;232;64785;-72
2022/05/16 12:28:21;;;;;;;;;;;;;;;22.94;67.71;97144.98;610778;232;63293;-72
2022/05/16 12:30:51;;;;;;;;;;;;;;;22.95;67.90;97137.77;610138;232;65182;-72
2022/05/16 12:33:26;;;;;;;;;;;;;;;22.95;68.43;97140.45;610733;232;66897;-72
2022/05/16 12:35:55;;;;;;;;;;;;;;;22.94;68.14;97141.52;610861;232;66242;-72
2022/05/16 12:38:24;;;;;;;;;;;;;;;22.94;67.96;97136.94;610857;232;66962;-72
2022/05/16 12:41:00;;;;;;;;;;;;;;;22.95;68.13;97129.73;610761;232;64947;-71
2022/05/16 12:43:45;;;;;;;;;;;;;;;22.95;67.65;97133.20;610405;232;65401;-71
2022/05/16 12:46:22;;;;;;;;;;;;;;;22.96;68.21;97136.70;610940;232;67052;-72
2022/05/16 12:49:03;;;;;;;;;;;;;;;22.96;68.47;97134.03;610854;231;45702;-71
2022/05/16 12:51:44;;;;;;;;;;;;;;;22.95;67.97;97130.52;610543;232;65412;-72
2022/05/16 12:54:30;;;;;;;;;;;;;;;22.95;68.44;97127.05;610858;232;67058;-72
2022/05/16 12:56:59;;;;;;;;;;;;;;;22.95;67.88;97132.41;610921;232;64695;-70
2022/05/16 12:59:49;;;;;;;;;;;;;;;22.95;68.94;97130.52;610879;232;65301;-72
2022/05/16 13:02:29;;;;;;;;;;;;;;;22.96;68.35;97117.95;610613;232;64848;-71
2022/05/16 13:05:10;;;;;;;;;;;;;;;22.96;68.85;97125.98;604195;232;68384;-72
2022/05/16 13:07:39;;;;;;;;;;;;;;;22.95;68.72;97125.16;609755;232;63030;-72
2022/05/16 13:10:09;;;;;;;;;;;;;;;22.96;67.98;97120.63;608876;233;67065;-72
2022/05/16 13:12:38;;;;;;;;;;;;;;;22.96;68.00;97117.95;609059;233;66713;-72
2022/05/16 13:15:07;;;;;;;;;;;;;;;22.96;68.67;97112.59;608360;233;65069;-71
2022/05/16 13:17:37;;;;;;;;;;;;;;;22.97;67.68;97114.17;609000;233;64802;-71
2022/05/16 13:20:16;;;;;;;;;;;;;;;22.97;68.12;97100.77;609134;233;67168;-71
2022/05/16 13:22:45;;;;;;;;;;;;;;;22.97;67.63;97098.09;609094;233;65107;-71
2022/05/16 13:25:13;;;;;;;;;;;;;;;22.98;69.09;97099.71;609028;233;64980;-71
2022/05/16 13:30:27;;;;;;;;;;;;;;;22.97;68.38;97098.09;609056;233;65410;-72
2022/05/16 13:32:54;;;;;;;;;;;;;;;22.98;68.59;97091.67;609090;233;65807;-72
2022/05/16 13:35:36;;;;;;;;;;;;;;;22.97;67.83;97100.77;609103;233;65021;-70
2022/05/16 13:38:05;;;;;;;;;;;;;;;22.97;68.46;97096.23;609089;233;65446;-71